Time;durP1;ratioP1;P1;durP2;ratioP2;P2;SDS_P1;SDS_P2;PMS_P1;PMS_P2;Temp;Humidity;BMP_temperature;BMP_pressure;BME280_temperature;BME280_humidity;BME280_pressure;Samples;Min_cycle;Max_cycle;Signal;HPM_P1;HPM_P2
2022/06/05 04:22:42;;;;;;;19.58;14.07;;;;;;;17.66;100.00;100160.47;5108928;27;20331;-77
2022/06/05 04:25:11;;;;;;;19.70;15.10;;;;;;;17.66;100.00;100155.06;5109120;28;20066;-78
2022/06/05 04:27:37;;;;;;;18.00;14.27;;;;;;;17.68;100.00;100158.38;5088755;28;20043;-77
2022/06/05 04:30:04;;;;;;;17.17;15.23;;;;;;;17.70;100.00;100167.06;5090472;28;20036;-77
2022/06/05 04:32:29;;;;;;;16.27;14.57;;;;;;;17.75;100.00;100171.81;5092431;28;20032;-78
2022/06/05 04:34:54;;;;;;;18.40;14.18;;;;;;;17.73;100.00;100171.22;5092832;28;20550;-77
2022/06/05 04:37:20;;;;;;;15.73;13.75;;;;;;;17.72;100.00;100175.78;5093119;28;20496;-77
2022/06/05 04:39:45;;;;;;;16.88;13.55;;;;;;;17.79;100.00;100170.31;5091972;28;20048;-77
2022/06/05 04:42:11;;;;;;;16.15;12.93;;;;;;;17.80;100.00;100150.41;5091687;28;20518;-78
2022/06/05 04:44:37;;;;;;;16.70;13.45;;;;;;;17.75;100.00;100137.63;5095070;28;20032;-77
2022/06/05 04:47:03;;;;;;;14.95;12.60;;;;;;;17.79;100.00;100130.72;5090310;28;20036;-77
2022/06/05 04:49:29;;;;;;;15.65;11.68;;;;;;;17.78;100.00;100090.56;5091391;28;20037;-79
2022/06/05 04:51:54;;;;;;;14.98;12.25;;;;;;;17.78;100.00;100066.31;5095301;28;20043;-77
2022/06/05 04:54:20;;;;;;;15.77;12.10;;;;;;;17.79;100.00;100065.25;5089159;28;20064;-77
2022/06/05 04:56:46;;;;;;;14.88;12.27;;;;;;;17.75;100.00;100061.38;5088426;28;20047;-77
2022/06/05 04:59:12;;;;;;;15.25;12.65;;;;;;;17.75;100.00;100093.72;5087976;28;20063;-76
2022/06/05 05:01:39;;;;;;;13.48;11.70;;;;;;;17.76;100.00;100108.81;5086966;28;20115;-76
2022/06/05 05:04:13;;;;;;;13.90;11.52;;;;;;;17.81;100.00;100119.75;5088207;28;20440;-76
2022/06/05 05:06:40;;;;;;;14.32;12.77;;;;;;;17.81;100.00;100108.97;5088075;28;20127;-76
2022/06/05 05:09:05;;;;;;;15.80;13.10;;;;;;;17.83;100.00;100102.31;5088046;28;20052;-76
2022/06/05 05:11:32;;;;;;;16.50;13.18;;;;;;;17.84;100.00;100105.81;5088018;28;20071;-76
2022/06/05 05:13:58;;;;;;;13.35;11.63;;;;;;;17.82;100.00;100106.06;5088102;28;20032;-76
2022/06/05 05:16:25;;;;;;;17.15;12.88;;;;;;;17.86;100.00;100098.31;5088939;28;20040;-77
2022/06/05 05:18:51;;;;;;;15.10;12.17;;;;;;;17.87;100.00;100097.31;5087941;28;20051;-76
2022/06/05 05:21:19;;;;;;;14.98;13.35;;;;;;;17.89;100.00;100087.13;5087821;28;20043;-77
2022/06/05 05:23:45;;;;;;;;;;;;;;;17.86;100.00;100082.16;5086639;28;20044;-77
2022/06/05 05:26:13;;;;;;;14.40;12.80;;;;;;;17.85;100.00;100067.06;5088610;28;19916;-77
2022/06/05 05:28:40;;;;;;;15.40;13.48;;;;;;;17.84;100.00;100066.22;5088619;28;20481;-77
2022/06/05 05:31:10;;;;;;;13.07;11.73;;;;;;;17.90;100.00;100061.81;5088085;28;20083;-77
2022/06/05 05:33:36;;;;;;;15.98;13.32;;;;;;;17.88;100.00;100055.84;5075349;28;20490;-77
2022/06/05 05:36:02;;;;;;;15.75;14.05;;;;;;;17.93;100.00;100052.44;5074574;28;20429;-77
2022/06/05 05:38:28;;;;;;;15.80;13.63;;;;;;;17.96;100.00;100057.41;5073179;28;20028;-77
2022/06/05 05:43:37;;;;;;;15.93;13.23;;;;;;;18.01;100.00;100076.41;5073791;28;20044;-77
2022/06/05 05:46:07;;;;;;;17.40;14.02;;;;;;;18.05;100.00;100075.72;5073066;28;20044;-77
2022/06/05 05:48:32;;;;;;;17.42;14.75;;;;;;;18.15;100.00;100073.31;5074232;28;20482;-77
2022/06/05 05:50:58;;;;;;;15.73;13.70;;;;;;;18.22;100.00;100077.81;5075411;28;20043;-77
2022/06/05 05:53:23;;;;;;;16.30;14.18;;;;;;;18.31;100.00;100079.94;5074750;28;20041;-77
2022/06/05 05:55:49;;;;;;;19.67;15.13;;;;;;;18.40;100.00;100080.47;5075559;28;20024;-76
2022/06/05 05:58:14;;;;;;;15.85;14.25;;;;;;;18.45;100.00;100083.28;5075457;28;20534;-77
2022/06/05 06:00:40;;;;;;;13.43;12.00;;;;;;;18.53;100.00;100084.88;5075132;28;20127;-78
2022/06/05 06:03:06;;;;;;;14.45;12.93;;;;;;;18.58;100.00;100083.13;5072137;28;20481;-79
2022/06/05 06:05:31;;;;;;;13.55;11.77;;;;;;;18.62;100.00;100070.81;5073445;28;20123;-79
2022/06/05 06:07:57;;;;;;;17.00;15.13;;;;;;;18.63;100.00;100063.53;5072509;28;20063;-78
2022/06/05 06:10:23;;;;;;;14.65;12.60;;;;;;;18.68;100.00;100048.34;5073350;28;20642;-78
2022/06/05 06:12:48;;;;;;;13.63;12.23;;;;;;;18.76;100.00;100035.56;5073128;28;20037;-77
2022/06/05 06:15:14;;;;;;;14.30;12.80;;;;;;;18.82;100.00;100021.16;5072107;28;20477;-77
2022/06/05 06:17:39;;;;;;;14.57;11.77;;;;;;;18.86;100.00;100022.34;5072297;28;20037;-77
2022/06/05 06:20:05;;;;;;;13.93;11.50;;;;;;;18.88;100.00;100025.63;5088919;28;20045;-76
2022/06/05 06:22:32;;;;;;;12.95;11.23;;;;;;;18.85;100.00;100009.91;5072742;28;20044;-74
2022/06/05 06:24:58;;;;;;;13.68;12.23;;;;;;;18.89;100.00;99994.88;5073310;28;20041;-75
2022/06/05 06:27:23;;;;;;;10.02;9.02;;;;;;;18.88;100.00;99985.16;5073063;28;20071;-74
2022/06/05 06:29:48;;;;;;;10.65;9.55;;;;;;;18.89;100.00;99981.38;5073111;28;20039;-74
2022/06/05 06:32:14;;;;;;;11.88;10.55;;;;;;;18.77;100.00;99956.25;5072757;28;20086;-75
2022/06/05 06:34:40;;;;;;;11.13;9.32;;;;;;;18.83;100.00;99936.44;5071625;28;20036;-74
2022/06/05 06:37:05;;;;;;;12.05;9.32;;;;;;;18.84;100.00;99941.59;5071445;28;20040;-75
2022/06/05 06:39:31;;;;;;;10.70;9.60;;;;;;;18.76;100.00;99933.03;5072880;28;20036;-74
2022/06/05 06:41:56;;;;;;;11.05;9.95;;;;;;;18.73;100.00;99944.31;5065680;28;20037;-74
2022/06/05 06:44:22;;;;;;;13.45;9.98;;;;;;;18.65;100.00;99953.56;5067182;28;20040;-75
2022/06/05 06:46:47;;;;;;;11.30;10.18;;;;;;;18.65;100.00;99948.16;5070883;28;20083;-74
2022/06/05 06:49:13;;;;;;;11.65;8.63;;;;;;;18.59;100.00;99936.41;5072485;28;20127;-74
2022/06/05 06:51:39;;;;;;;9.52;8.50;;;;;;;18.61;100.00;99928.91;5071547;28;20040;-74
2022/06/05 06:54:05;;;;;;;10.45;8.40;;;;;;;18.61;100.00;99936.19;5072135;28;20040;-77
2022/06/05 06:56:33;;;;;;;10.18;8.93;;;;;;;18.60;100.00;99935.38;5072148;28;20036;-75
2022/06/05 06:59:00;;;;;;;9.25;7.70;;;;;;;18.64;100.00;99933.81;5072092;28;20388;-76
2022/06/05 07:01:26;;;;;;;9.18;8.23;;;;;;;18.65;100.00;99937.38;5072029;28;20036;-75
2022/06/05 07:03:52;;;;;;;10.05;7.60;;;;;;;18.67;100.00;99937.97;5071621;28;20032;-75
2022/06/05 07:06:18;;;;;;;9.82;8.40;;;;;;;18.66;100.00;99934.47;5072064;28;20082;-75
2022/06/05 07:08:44;;;;;;;8.65;7.50;;;;;;;18.68;100.00;99929.66;5070905;28;20041;-76
2022/06/05 07:11:12;;;;;;;9.40;8.50;;;;;;;18.67;100.00;99919.91;5072223;28;20060;-76
2022/06/05 07:13:37;;;;;;;;;;;;;;;18.73;100.00;99915.47;5071835;28;20039;-76
2022/06/05 07:16:06;;;;;;;8.60;7.70;;;;;;;18.70;100.00;99916.72;5071947;28;20396;-77
2022/06/05 07:18:31;;;;;;;9.38;8.30;;;;;;;18.73;100.00;99920.03;5072213;28;20068;-78
2022/06/05 07:20:57;;;;;;;8.52;7.72;;;;;;;18.75;100.00;99915.22;5071521;28;20080;-78
2022/06/05 07:23:22;;;;;;;8.45;7.20;;;;;;;18.67;100.00;99909.13;5071280;28;20051;-76
2022/06/05 07:25:51;;;;;;;7.82;7.10;;;;;;;18.73;100.00;99917.34;5071919;28;20068;-76
2022/06/05 07:28:18;;;;;;;8.55;7.65;;;;;;;18.80;100.00;99923.44;5071620;28;20097;-76
2022/06/05 07:30:49;;;;;;;8.03;7.23;;;;;;;18.78;100.00;99923.69;5072632;28;20033;-76
2022/06/05 07:33:16;;;;;;;10.82;7.78;;;;;;;18.84;100.00;99919.19;5071035;28;20040;-75
2022/06/05 07:35:42;;;;;;;8.00;7.13;;;;;;;18.87;100.00;99911.47;5071660;28;20473;-76
2022/06/05 07:38:11;;;;;;;8.73;7.35;;;;;;;18.92;100.00;99906.19;5071856;28;20074;-77
2022/06/05 07:40:42;;;;;;;7.35;6.68;;;;;;;18.92;100.00;99890.00;5070188;28;20030;-76
2022/06/05 07:43:09;;;;;;;7.20;6.50;;;;;;;19.01;100.00;99879.66;5049917;28;20406;-77
2022/06/05 07:45:36;;;;;;;7.43;6.72;;;;;;;19.03;100.00;99864.03;5050606;28;20116;-77
2022/06/05 07:48:02;;;;;;;7.57;6.82;;;;;;;19.10;100.00;99848.53;5052204;28;20477;-77
2022/06/05 07:50:27;;;;;;;7.35;6.63;;;;;;;19.04;100.00;99819.81;5051698;28;20041;-77
2022/06/05 07:55:36;;;;;;;7.18;6.45;;;;;;;19.06;100.00;99824.97;5051285;28;20037;-75
2022/06/05 07:58:02;;;;;;;12.63;10.05;;;;;;;19.15;100.00;99834.31;5051350;28;20405;-77
2022/06/05 08:00:27;;;;;;;6.32;5.72;;;;;;;19.24;100.00;99844.50;5050214;28;20597;-77
2022/06/05 08:02:53;;;;;;;7.85;7.10;;;;;;;19.23;100.00;99845.56;5049519;28;20029;-76
2022/06/05 08:05:18;;;;;;;9.32;7.45;;;;;;;19.30;100.00;99848.16;5051312;28;20139;-77
2022/06/05 08:07:44;;;;;;;7.15;6.50;;;;;;;19.36;100.00;99867.94;5083356;28;20037;-73
2022/06/05 08:10:10;;;;;;;23.15;7.78;;;;;;;19.38;100.00;99871.25;5051366;28;20520;-75
2022/06/05 08:12:35;;;;;;;7.70;6.90;;;;;;;19.37;100.00;99869.59;5059721;28;20421;-76
2022/06/05 08:15:05;;;;;;;6.93;6.22;;;;;;;19.47;100.00;99877.88;5071092;28;20044;-76
2022/06/05 08:17:31;;;;;;;7.60;6.75;;;;;;;19.52;100.00;99884.22;5070931;28;20069;-77
2022/06/05 08:19:57;;;;;;;10.18;6.60;;;;;;;19.65;100.00;99885.03;5071130;28;20140;-76
2022/06/05 08:22:24;;;;;;;6.88;5.80;;;;;;;19.78;99.01;99893.66;5069324;28;20047;-76
2022/06/05 08:24:52;;;;;;;7.35;6.63;;;;;;;20.00;99.40;99911.88;5072180;28;20036;-75
2022/06/05 08:27:18;;;;;;;;;;;;;;;20.28;94.04;99908.31;5071182;28;20378;-76
2022/06/05 08:29:44;;;;;;;5.47;4.80;;;;;;;20.54;93.15;99904.19;5071400;28;20305;-75
2022/06/05 08:32:10;;;;;;;5.60;4.95;;;;;;;20.67;96.94;99911.97;5070725;28;20043;-76
2022/06/05 08:34:36;;;;;;;5.50;5.00;;;;;;;20.84;96.05;99912.75;5069780;28;20585;-76
2022/06/05 08:42:45;;;;;;;6.18;5.53;;;;;;;21.58;92.14;99919.69;5070073;28;20430;-77
2022/06/05 08:45:39;;;;;;;8.55;6.03;;;;;;;21.83;88.91;99925.38;5071479;28;20051;-75
2022/06/05 08:48:16;;;;;;;7.07;5.78;;;;;;;22.03;91.79;99930.19;5070909;28;20051;-75
2022/06/05 08:50:48;;;;;;;6.45;5.55;;;;;;;22.29;92.37;99925.06;5069011;28;20087;-75
2022/06/05 08:53:32;;;;;;;7.68;6.32;;;;;;;22.57;92.17;99940.22;5049561;28;20041;-76
2022/06/05 08:55:59;;;;;;;6.97;6.00;;;;;;;22.74;93.71;99952.56;5049717;28;20146;-75
2022/06/05 08:58:29;;;;;;;6.88;6.28;;;;;;;22.85;88.67;99958.91;5049711;28;20540;-76
2022/06/05 09:01:05;;;;;;;10.32;6.63;;;;;;;22.68;88.72;99960.94;5065667;28;20041;-75
2022/06/05 09:03:49;;;;;;;10.82;7.28;;;;;;;22.57;86.21;99961.94;5050544;28;20579;-76
2022/06/05 09:06:42;;;;;;;10.90;8.35;;;;;;;22.66;89.05;99965.81;5048898;28;20036;-74
2022/06/05 09:09:16;;;;;;;9.77;8.43;;;;;;;22.47;90.50;99966.19;5053365;28;20471;-75
2022/06/05 09:12:01;;;;;;;10.13;9.07;;;;;;;22.32;91.69;99959.81;5054487;28;20036;-76
2022/06/05 09:14:47;;;;;;;10.07;9.13;;;;;;;22.36;90.81;99967.16;5054758;28;20044;-76
2022/06/05 09:17:17;;;;;;;13.80;12.07;;;;;;;22.13;90.95;99968.31;5054596;28;20040;-75
2022/06/05 09:19:43;;;;;;;16.95;11.73;;;;;;;22.05;91.82;99963.31;5054658;28;20041;-75
2022/06/05 09:22:17;;;;;;;15.60;11.95;;;;;;;21.84;95.31;99966.88;5054159;28;20048;-75
2022/06/05 09:24:59;;;;;;;14.27;12.52;;;;;;;21.83;93.07;99967.94;5069803;28;20044;-75
2022/06/05 09:27:50;;;;;;;14.10;12.68;;;;;;;21.86;94.34;99968.28;5054672;28;20484;-74
2022/06/05 09:30:34;;;;;;;14.63;12.15;;;;;;;22.07;92.10;99968.50;5054238;28;20454;-75
2022/06/05 09:33:17;;;;;;;16.20;14.50;;;;;;;21.97;92.75;99963.75;5053922;28;20347;-76
2022/06/05 09:35:50;;;;;;;16.48;14.02;;;;;;;21.84;91.13;99978.56;5054197;28;20450;-77
2022/06/05 09:38:25;;;;;;;17.02;15.23;;;;;;;21.88;92.52;99982.38;5054075;28;20040;-75
2022/06/05 09:41:02;;;;;;;17.63;15.13;;;;;;;21.84;92.18;99975.00;5054053;28;20075;-75
2022/06/05 09:43:54;;;;;;;17.10;14.63;;;;;;;22.18;90.36;99970.28;5053785;28;20037;-75
2022/06/05 09:46:42;;;;;;;16.75;14.10;;;;;;;22.55;90.72;99966.78;5054018;28;20055;-75
2022/06/05 09:49:14;;;;;;;14.55;13.02;;;;;;;22.75;86.74;99956.09;5052948;28;20359;-75
2022/06/05 09:51:42;;;;;;;13.15;11.75;;;;;;;22.98;84.23;99961.19;5053795;28;20132;-75
2022/06/05 09:54:28;;;;;;;12.32;10.80;;;;;;;23.49;79.95;99956.03;5053881;28;20482;-75
2022/06/05 10:00:08;;;;;;;12.38;9.98;;;;;;;23.59;79.31;99962.59;5053594;28;20063;-76
2022/06/05 10:02:36;;;;;;;12.82;11.25;;;;;;;23.77;78.24;99965.69;5053453;28;20040;-75
2022/06/05 10:05:14;;;;;;;14.07;11.25;;;;;;;23.81;77.62;99965.97;5053662;28;20044;-76
2022/06/05 10:07:52;;;;;;;12.65;11.15;;;;;;;24.19;75.36;99959.28;5069311;28;20108;-75
2022/06/05 10:10:24;;;;;;;12.48;10.77;;;;;;;24.32;76.53;99945.13;5073530;28;20032;-76
2022/06/05 10:12:55;;;;;;;14.35;9.73;;;;;;;24.46;73.59;99950.88;5073492;28;20385;-76
2022/06/05 10:15:28;;;;;;;13.35;10.15;;;;;;;24.45;74.50;99959.28;5073528;28;20062;-76
2022/06/05 10:17:58;;;;;;;11.38;10.18;;;;;;;24.44;74.98;99963.94;5073510;28;20084;-76
2022/06/05 10:20:29;;;;;;;15.30;12.02;;;;;;;24.37;76.06;99963.38;5073291;28;20036;-76
2022/06/05 10:23:10;;;;;;;12.55;10.07;;;;;;;24.44;74.67;99969.38;5073093;28;20028;-75
2022/06/05 10:26:06;;;;;;;11.52;10.23;;;;;;;24.76;76.61;99960.94;5073209;28;20489;-76
2022/06/05 10:28:38;;;;;;;14.38;11.20;;;;;;;24.83;74.66;99953.28;5073197;28;20037;-75
2022/06/05 10:31:08;;;;;;;11.10;9.93;;;;;;;24.95;74.73;99953.00;5072440;28;20040;-75
2022/06/05 10:33:39;;;;;;;10.25;9.25;;;;;;;25.01;72.73;99951.09;5072993;28;20443;-75
2022/06/05 10:36:18;;;;;;;13.02;11.05;;;;;;;24.68;75.49;99952.50;5073008;28;20103;-75
2022/06/05 10:39:03;;;;;;;14.32;9.88;;;;;;;24.52;75.48;99947.06;5072931;28;20131;-74
2022/06/05 10:41:36;;;;;;;10.93;9.82;;;;;;;24.55;73.92;99943.78;5072778;28;20044;-75
2022/06/05 10:44:18;;;;;;;10.05;8.93;;;;;;;24.53;74.20;99951.44;5071565;28;20481;-75
2022/06/05 10:47:21;;;;;;;11.63;10.02;;;;;;;24.57;74.79;99951.69;5072843;28;20055;-75
2022/06/05 10:49:56;;;;;;;14.85;9.93;;;;;;;24.38;72.95;99939.69;5072862;28;20032;-75
2022/06/05 10:52:33;;;;;;;12.40;9.27;;;;;;;24.43;72.47;99945.97;5072734;28;20066;-75
2022/06/05 10:55:23;;;;;;;11.15;9.55;;;;;;;24.64;71.57;99939.41;5072871;28;20505;-76
2022/06/05 10:58:13;;;;;;;11.65;9.43;;;;;;;25.05;74.29;99938.59;5072674;28;20040;-76
2022/06/05 11:01:12;;;;;;;12.68;9.02;;;;;;;25.07;71.85;99944.56;5072525;28;20029;-75
2022/06/05 11:04:03;;;;;;;12.90;9.77;;;;;;;25.44;69.48;99944.19;5072656;28;20039;-77
2022/06/05 11:06:40;;;;;;;13.48;9.20;;;;;;;25.79;71.50;99942.44;5072717;28;20040;-76
2022/06/05 11:09:18;;;;;;;12.57;10.27;;;;;;;26.59;69.33;99926.59;5071239;28;20130;-77
2022/06/05 11:15:16;;;;;;;10.48;8.82;;;;;;;27.92;63.10;99922.38;5072378;28;20090;-77
2022/06/05 11:17:44;;;;;;;15.48;9.05;;;;;;;27.94;60.84;99920.97;5072455;28;20021;-76
2022/06/05 11:20:13;;;;;;;9.50;8.52;;;;;;;28.08;60.49;99924.56;5070989;28;20032;-76
2022/06/05 11:22:51;;;;;;;12.68;8.75;;;;;;;28.46;62.77;99921.81;5071941;28;20481;-76
2022/06/05 11:25:36;;;;;;;10.20;8.77;;;;;;;29.30;57.10;99909.88;5072119;28;20489;-76
2022/06/05 11:28:23;;;;;;;12.23;8.57;;;;;;;29.08;57.48;99913.31;5070782;28;20111;-76
2022/06/05 11:31:20;;;;;;;10.70;8.40;;;;;;;29.59;57.27;99913.13;5071556;28;20024;-77
2022/06/05 11:33:53;;;;;;;9.27;6.88;;;;;;;29.66;53.72;99909.94;5062445;28;20040;-74
2022/06/05 11:36:26;;;;;;;11.98;7.32;;;;;;;29.39;54.53;99913.53;5054139;28;20515;-77
2022/06/05 11:39:12;;;;;;;8.48;7.28;;;;;;;29.03;55.78;99906.03;5072161;28;20180;-70
2022/06/05 11:41:52;;;;;;;10.20;7.00;;;;;;;29.42;55.18;99894.53;5071945;28;20393;-73
2022/06/05 11:44:31;;;;;;;11.15;8.15;;;;;;;29.48;56.42;99889.75;5071977;28;20028;-74
2022/06/05 11:47:05;;;;;;;10.05;7.53;;;;;;;29.09;56.92;99879.31;5070911;28;20484;-74
2022/06/05 11:49:45;;;;;;;10.98;8.07;;;;;;;28.77;57.19;99886.47;5071876;28;20162;-72
2022/06/05 11:52:28;;;;;;;10.02;6.45;;;;;;;27.80;57.53;99885.31;5104371;28;20033;-74
2022/06/05 11:55:25;;;;;;;6.35;3.97;;;;;;;26.55;57.69;99887.31;5068495;28;20040;-75
2022/06/05 11:58:01;;;;;;;5.07;3.20;;;;;;;26.12;57.95;99892.53;5071789;28;20059;-77
2022/06/05 12:00:43;;;;;;;5.32;2.88;;;;;;;25.40;59.27;99930.28;5071868;28;20051;-73
2022/06/05 12:03:19;;;;;;;3.33;2.20;;;;;;;24.86;62.21;99913.81;5070090;28;20040;-74
2022/06/05 12:06:01;;;;;;;5.82;2.40;;;;;;;24.54;64.73;99914.94;5071858;28;20063;-74
2022/06/05 12:08:41;;;;;;;7.00;2.60;;;;;;;24.27;66.35;99927.97;5071632;28;20470;-73
2022/06/05 12:11:12;;;;;;;7.05;3.00;;;;;;;24.11;70.41;99940.72;5071628;28;20473;-75
2022/06/05 12:13:40;;;;;;;5.43;2.60;;;;;;;23.85;71.52;99937.16;5071430;28;20078;-75
2022/06/05 12:16:10;;;;;;;5.10;2.60;;;;;;;23.61;75.17;99931.38;5071705;28;20428;-75
2022/06/05 12:18:48;;;;;;;5.50;3.30;;;;;;;23.75;73.86;99918.09;5071499;28;20052;-75
2022/06/05 12:21:28;;;;;;;5.63;3.08;;;;;;;23.92;73.67;99918.66;5071332;28;20531;-75
2022/06/05 12:23:58;;;;;;;4.40;3.00;;;;;;;24.04;75.97;99916.50;5070073;28;20033;-76
2022/06/05 12:26:33;;;;;;;4.43;3.30;;;;;;;23.53;73.45;99910.91;5071391;28;20033;-76
2022/06/05 12:29:10;;;;;;;5.10;3.22;;;;;;;23.54;76.87;99907.13;5071278;28;20086;-75
2022/06/05 12:31:48;;;;;;;6.00;3.00;;;;;;;23.44;77.07;99925.28;5070064;28;20086;-76
2022/06/05 12:34:19;;;;;;;6.85;3.30;;;;;;;23.05;78.27;99927.53;5071524;28;20516;-76
2022/06/05 12:36:53;;;;;;;5.30;2.97;;;;;;;22.82;78.68;99934.16;5071375;28;20063;-75
2022/06/05 12:39:28;;;;;;;6.38;3.38;;;;;;;22.74;80.27;99928.13;5070405;28;20190;-75
2022/06/05 12:42:12;;;;;;;6.63;3.15;;;;;;;22.52;82.08;99945.63;5070998;28;20041;-75
2022/06/05 12:44:52;;;;;;;5.80;2.78;;;;;;;22.28;81.98;99934.28;5075634;28;20043;-76
2022/06/05 12:47:23;;;;;;;7.18;3.15;;;;;;;22.16;81.73;99950.69;5075339;28;20085;-73
2022/06/05 12:49:55;;;;;;;9.82;3.17;;;;;;;22.06;82.21;99950.59;5074098;28;20535;-76
2022/06/05 12:52:35;;;;;;;5.93;2.80;;;;;;;22.27;82.69;99941.59;5074899;28;20043;-75
2022/06/05 12:55:28;;;;;;;3.03;2.05;;;;;;;22.57;81.25;99932.91;5075085;28;20489;-74
2022/06/05 12:58:12;;;;;;;3.72;2.50;;;;;;;23.07;77.62;99934.34;5075156;28;20097;-74
2022/06/05 13:00:47;;;;;;;4.97;2.60;;;;;;;23.09;77.27;99931.38;5073537;28;20085;-72
2022/06/05 13:03:24;;;;;;;6.85;2.88;;;;;;;23.09;79.59;99951.22;5056770;28;20032;-74
2022/06/05 13:05:59;;;;;;;7.43;2.85;;;;;;;22.95;83.50;99955.44;5073506;28;20378;-72
2022/06/05 13:08:24;;;;;;;3.65;2.67;;;;;;;22.69;85.23;99947.13;5074837;28;20494;-74
2022/06/05 13:11:28;;;;;;;4.32;2.60;;;;;;;22.48;83.92;99965.09;5074686;28;20051;-77
2022/06/05 13:14:09;;;;;;;3.95;2.83;;;;;;;22.46;83.69;99964.56;5074395;28;20033;-76
2022/06/05 13:17:01;;;;;;;4.38;2.67;;;;;;;22.45;80.84;99948.53;5074628;28;20095;-76
2022/06/05 13:19:53;;;;;;;3.22;2.30;;;;;;;22.45;82.11;99952.06;5071477;28;20463;-75
2022/06/05 13:22:44;;;;;;;5.75;2.85;;;;;;;22.60;83.49;99937.81;5072787;28;20123;-75
2022/06/05 13:25:17;;;;;;;3.83;2.15;;;;;;;22.65;80.17;99940.56;5074551;28;20029;-76
2022/06/05 13:28:08;;;;;;;5.78;2.60;;;;;;;22.85;79.79;99942.59;5074560;28;20481;-76
2022/06/05 13:30:50;;;;;;;6.20;2.70;;;;;;;22.94;78.91;99942.94;5074659;28;20036;-76
2022/06/05 13:33:36;;;;;;;3.08;2.38;;;;;;;23.07;78.18;99942.50;5074166;28;20033;-76
2022/06/05 13:36:07;;;;;;;6.47;2.70;;;;;;;22.92;79.09;99945.94;5074250;28;20024;-74
2022/06/05 13:38:58;;;;;;;5.07;3.13;;;;;;;23.12;76.85;99947.97;5074449;28;20078;-76
2022/06/05 13:41:54;;;;;;;4.97;2.97;;;;;;;23.22;75.22;99941.78;5072916;28;20052;-75
2022/06/05 13:44:22;;;;;;;6.78;3.13;;;;;;;23.26;75.41;99940.16;5072969;28;20040;-76
2022/06/05 13:46:54;;;;;;;4.47;2.60;;;;;;;23.27;77.40;99947.22;5074006;28;20378;-74
2022/06/05 13:49:48;;;;;;;4.32;2.80;;;;;;;23.42;74.97;99943.78;5074028;28;20090;-73
2022/06/05 13:52:29;;;;;;;5.05;2.35;;;;;;;23.50;74.14;99929.66;5065272;28;20071;-74
2022/06/05 13:55:01;;;;;;;5.03;2.58;;;;;;;23.46;73.24;99921.22;5073870;28;20036;-74
2022/06/05 13:57:42;;;;;;;4.18;2.22;;;;;;;23.56;72.00;99920.44;5073623;28;20040;-75
2022/06/05 14:00:21;;;;;;;3.85;2.50;;;;;;;23.58;71.46;99912.03;5073722;28;20543;-73
2022/06/05 14:03:00;;;;;;;4.38;2.65;;;;;;;23.51;72.10;99921.25;5073267;28;20090;-74
2022/06/05 14:05:34;;;;;;;3.85;2.35;;;;;;;23.48;71.72;99932.66;5073604;28;20495;-74
2022/06/05 14:08:11;;;;;;;4.18;2.85;;;;;;;23.21;80.55;99949.13;5072485;28;20070;-74
2022/06/05 14:10:51;;;;;;;;;;;;;;;22.33;90.00;99954.13;5074012;28;20047;-75
2022/06/05 14:13:16;;;;;;;5.88;3.25;;;;;;;21.52;94.91;99961.38;5071777;28;19912;-74
2022/06/05 14:15:58;;;;;;;5.65;3.78;;;;;;;21.23;97.88;99974.22;5073418;28;20162;-73
2022/06/05 14:18:24;;;;;;;4.65;2.75;;;;;;;21.13;98.71;99974.91;5055590;28;20127;-73
2022/06/05 14:20:51;;;;;;;4.65;2.67;;;;;;;21.14;100.00;99984.66;5073331;28;20112;-73
2022/06/05 14:23:21;;;;;;;;;;;;;;;21.09;98.85;99984.56;5073689;28;20036;-74
2022/06/05 14:25:52;;;;;;;3.50;2.50;;;;;;;21.03;97.51;99982.88;5073197;28;20306;-75
2022/06/05 14:28:20;;;;;;;4.07;2.45;;;;;;;21.17;98.95;99992.28;5073603;28;20039;-74
2022/06/05 14:30:58;;;;;;;6.15;2.92;;;;;;;21.29;99.87;99997.63;5073281;28;20051;-74
2022/06/05 14:33:29;;;;;;;6.38;2.67;;;;;;;21.38;97.73;99999.63;5072841;28;20493;-74
2022/06/05 14:35:56;;;;;;;6.38;3.00;;;;;;;21.52;96.06;100005.53;5073121;28;20447;-75
2022/06/05 14:38:39;;;;;;;7.50;2.73;;;;;;;21.68;93.16;100014.69;5073019;28;20117;-74
2022/06/05 14:41:25;;;;;;;4.72;2.60;;;;;;;21.77;93.79;100045.69;5071493;28;20405;-73
2022/06/05 14:44:16;;;;;;;2.83;2.20;;;;;;;21.82;91.01;100059.31;5071586;28;20043;-74
2022/06/05 14:46:54;;;;;;;3.70;2.20;;;;;;;21.92;90.34;100086.56;5072775;28;20042;-74
2022/06/05 14:49:42;;;;;;;3.13;2.00;;;;;;;21.76;88.81;100095.53;5072780;28;20044;-74
2022/06/05 14:52:31;;;;;;;2.80;2.00;;;;;;;21.55;86.68;100104.47;5072350;28;20063;-74
2022/06/05 14:58:14;;;;;;;2.50;1.80;;;;;;;21.16;84.72;100134.16;5071615;28;20037;-76
2022/06/05 15:00:51;;;;;;;3.05;1.80;;;;;;;21.04;84.96;100126.13;5073376;28;20033;-75
2022/06/05 15:03:30;;;;;;;3.55;1.77;;;;;;;20.77;81.57;100127.81;5072913;28;20066;-75
2022/06/05 15:05:58;;;;;;;1.10;1.00;;;;;;;20.61;81.89;100115.88;5070677;28;20052;-76
2022/06/05 15:08:37;;;;;;;2.67;1.33;;;;;;;20.49;80.61;100113.22;5072562;28;20055;-75
2022/06/05 15:11:05;;;;;;;1.15;0.90;;;;;;;20.40;79.76;100108.38;5072770;28;20111;-75
2022/06/05 15:13:45;;;;;;;1.60;1.10;;;;;;;20.30;79.53;100111.72;5072235;28;20041;-76
2022/06/05 15:16:39;;;;;;;1.23;0.90;;;;;;;20.12;80.48;100103.78;5072587;28;20470;-74
2022/06/05 15:19:08;;;;;;;1.80;1.27;;;;;;;20.27;79.87;100091.38;5072528;28;20134;-75
2022/06/05 15:21:41;;;;;;;1.00;0.90;;;;;;;20.05;79.03;100090.41;5072049;28;20047;-73
2022/06/05 15:24:19;;;;;;;1.77;0.80;;;;;;;20.02;79.45;100113.34;5072571;28;20499;-75
2022/06/05 15:26:47;;;;;;;;;;;;;;;19.99;79.93;100115.69;5071209;28;20438;-75
2022/06/05 15:29:31;;;;;;;1.23;0.85;;;;;;;20.08;79.87;100108.00;5072121;28;19928;-74
2022/06/05 15:32:01;;;;;;;3.17;1.23;;;;;;;20.14;81.28;100123.28;5070498;28;20021;-74
2022/06/05 15:35:06;;;;;;;2.47;1.10;;;;;;;20.17;82.29;100139.03;5070589;28;20085;-74
2022/06/05 15:38:03;;;;;;;1.90;1.00;;;;;;;20.13;80.64;100141.41;5063030;28;20060;-74
2022/06/05 15:40:48;;;;;;;1.23;0.65;;;;;;;19.95;79.05;100147.78;5071676;28;20044;-75
2022/06/05 15:43:39;;;;;;;2.08;0.82;;;;;;;19.93;78.75;100143.66;5070376;28;20039;-77
2022/06/05 15:46:12;;;;;;;4.50;1.10;;;;;;;20.01;80.20;100136.00;5071815;28;20036;-73
2022/06/05 15:48:59;;;;;;;1.05;0.85;;;;;;;20.19;80.84;100136.91;5071836;28;20066;-75
2022/06/05 15:52:02;;;;;;;1.33;0.80;;;;;;;20.07;81.59;100134.22;5072031;28;20366;-75
2022/06/05 15:54:37;;;;;;;1.45;0.80;;;;;;;20.08;81.32;100130.47;5066060;28;20028;-76
2022/06/05 16:00:13;;;;;;;2.47;1.10;;;;;;;20.03;80.13;100142.00;5065429;28;20430;-73
2022/06/05 16:02:41;;;;;;;4.18;1.02;;;;;;;20.03;80.84;100130.38;5070742;28;20045;-77
2022/06/05 16:05:34;;;;;;;1.15;1.02;;;;;;;20.02;82.23;100132.25;5071457;28;20036;-74
2022/06/05 16:08:07;;;;;;;2.67;1.17;;;;;;;19.92;82.15;100126.63;5060331;28;20090;-73
2022/06/05 16:10:48;;;;;;;3.05;1.30;;;;;;;19.88;81.49;100121.91;5071129;28;20039;-74
2022/06/05 16:13:15;;;;;;;2.08;1.10;;;;;;;19.82;80.55;100130.97;5070590;28;20051;-74
2022/06/05 16:15:40;;;;;;;1.50;1.23;;;;;;;19.82;82.00;100141.78;5071039;28;20082;-74
2022/06/05 16:18:26;;;;;;;4.68;1.35;;;;;;;19.90;82.86;100138.75;5071358;28;20136;-74
2022/06/05 16:21:28;;;;;;;1.63;1.02;;;;;;;19.87;80.25;100150.00;5071139;28;20127;-74
2022/06/05 16:24:41;;;;;;;0.80;0.68;;;;;;;19.97;77.83;100155.66;5070640;28;20040;-74
2022/06/05 16:27:46;;;;;;;1.27;0.90;;;;;;;20.05;78.38;100158.00;4992763;28;20402;-75
2022/06/05 16:30:28;;;;;;;1.75;1.00;;;;;;;20.10;76.09;100168.09;5006223;28;20053;-74
2022/06/05 16:32:53;;;;;;;1.52;0.93;;;;;;;20.02;74.87;100166.59;5046127;28;20087;-74
2022/06/05 16:38:47;;;;;;;1.38;0.80;;;;;;;20.01;75.27;100184.66;5051168;28;20124;-73
2022/06/05 16:41:13;;;;;;;2.15;0.80;;;;;;;19.95;76.67;100195.59;5050996;28;20047;-74
2022/06/05 16:43:41;;;;;;;1.73;0.65;;;;;;;19.91;76.64;100189.03;5050515;28;20112;-75
2022/06/05 16:46:13;;;;;;;3.10;0.90;;;;;;;19.98;76.19;100185.16;5049824;28;20037;-75